createdAt,value
2023-05-08T00:02:24.724Z,101839.84
2023-05-08T00:05:13.983Z,101838.90
2023-05-08T00:08:03.089Z,101841.02
2023-05-08T00:10:52.497Z,101842.48
2023-05-08T00:13:41.734Z,101843.30
2023-05-08T00:16:32.978Z,101846.42
2023-05-08T00:19:21.885Z,101843.29
2023-05-08T00:22:05.399Z,101846.86
2023-05-08T00:24:55.219Z,101844.15
2023-05-08T00:27:47.264Z,101847.30
2023-05-08T00:30:36.392Z,101850.42
2023-05-08T00:33:24.776Z,101850.33
2023-05-08T00:36:20.328Z,101852.54
2023-05-08T00:39:12.140Z,101854.91
2023-05-08T00:42:01.145Z,101853.02
2023-05-08T00:44:49.689Z,101857.39
2023-05-08T00:47:39.269Z,101861.88
2023-05-08T00:50:29.243Z,101861.75
2023-05-08T00:53:19.809Z,101863.54
2023-05-08T00:56:11.536Z,101867.14
2023-05-08T00:59:03.477Z,101868.62
2023-05-08T01:01:53.470Z,101873.48
2023-05-08T01:04:44.142Z,101876.00
2023-05-08T01:07:36.229Z,101878.03
2023-05-08T01:10:21.283Z,101881.13
2023-05-08T01:13:17.282Z,101881.85
2023-05-08T01:16:15.480Z,101884.58
2023-05-08T01:19:26.507Z,101887.30
2023-05-08T01:22:26.779Z,101892.44
2023-05-08T01:25:36.705Z,101893.65
2023-05-08T01:28:30.087Z,101893.11
2023-05-08T01:31:25.583Z,101898.69
2023-05-08T01:34:20.352Z,101897.17
2023-05-08T01:37:13.379Z,101897.63
2023-05-08T01:39:59.647Z,101897.52
2023-05-08T01:42:50.923Z,101901.67
2023-05-08T01:45:41.181Z,101904.38
2023-05-08T01:48:31.246Z,101901.74
2023-05-08T01:51:24.804Z,101902.94
2023-05-08T01:54:15.916Z,101904.54
2023-05-08T01:57:07.341Z,101906.68
2023-05-08T02:00:03.589Z,101908.73
2023-05-08T02:02:45.513Z,101907.73
2023-05-08T02:05:36.935Z,101910.03
2023-05-08T02:08:28.966Z,101909.03
2023-05-08T02:11:18.842Z,101908.69
2023-05-08T02:14:06.689Z,101907.86
2023-05-08T02:16:56.470Z,101911.21
2023-05-08T02:19:47.257Z,101915.28
2023-05-08T02:22:38.765Z,101916.16
2023-05-08T02:25:25.693Z,101914.94
2023-05-08T02:28:18.144Z,101913.15
2023-05-08T02:31:01.567Z,101913.42
2023-05-08T02:33:50.913Z,101912.88
2023-05-08T02:36:43.955Z,101914.00
2023-05-08T02:39:36.139Z,101914.62
2023-05-08T02:42:25.716Z,101912.60
2023-05-08T02:45:14.538Z,101911.77
2023-05-08T02:48:17.835Z,101915.38
2023-05-08T02:51:03.279Z,101908.88
2023-05-08T02:53:57.214Z,101911.20
2023-05-08T02:56:50.249Z,101916.43
2023-05-08T02:59:42.512Z,101915.45
2023-05-08T03:02:38.227Z,101919.62
2023-05-08T03:05:33.167Z,101920.61
2023-05-08T03:08:30.105Z,101922.23
2023-05-08T03:11:22.159Z,101923.27
2023-05-08T03:14:12.539Z,101923.56
2023-05-08T03:17:02.306Z,101927.31
2023-05-08T03:19:55.085Z,101934.16
2023-05-08T03:22:37.975Z,101929.57
2023-05-08T03:25:27.820Z,101932.22
2023-05-08T03:28:18.775Z,101936.92
2023-05-08T03:31:07.567Z,101940.38
2023-05-08T03:33:56.683Z,101945.40
2023-05-08T03:36:36.710Z,101951.52
2023-05-08T03:39:28.150Z,101948.52
2023-05-08T03:42:17.190Z,101946.94
2023-05-08T03:45:02.811Z,101946.49
2023-05-08T03:47:35.857Z,101943.11
2023-05-08T03:50:25.632Z,101947.33
2023-05-08T03:53:14.406Z,101938.41
2023-05-08T03:56:04.116Z,101937.21
2023-05-08T03:58:57.362Z,101939.42
2023-05-08T04:01:50.972Z,101941.36
2023-05-08T04:04:40.171Z,101943.63
2023-05-08T04:07:34.131Z,101945.12
2023-05-08T04:10:29.390Z,101944.16
2023-05-08T04:13:12.747Z,101950.45
2023-05-08T04:16:10.509Z,101959.54
2023-05-08T04:18:45.896Z,101956.16
2023-05-08T04:21:42.730Z,101959.03
2023-05-08T04:24:34.733Z,101962.30
2023-05-08T04:27:09.775Z,101959.55
2023-05-08T04:29:58.769Z,101961.75
2023-05-08T04:32:48.323Z,101965.70
2023-05-08T04:35:39.456Z,101962.79
2023-05-08T04:38:28.909Z,101966.79
2023-05-08T04:41:19.346Z,101968.98
2023-05-08T04:44:09.796Z,101969.23
2023-05-08T04:46:53.431Z,101971.27
2023-05-08T04:49:47.626Z,101972.86
2023-05-08T04:52:39.567Z,101974.48
2023-05-08T04:55:29.607Z,101978.33
2023-05-08T04:58:21.639Z,101976.45
2023-05-08T05:01:11.786Z,101973.19
2023-05-08T05:04:06.127Z,101971.95
2023-05-08T05:06:59.279Z,101976.48
2023-05-08T05:09:49.920Z,101983.56
2023-05-08T05:12:41.002Z,101985.74
2023-05-08T05:15:29.905Z,101989.91
2023-05-08T05:18:18.967Z,101988.14
2023-05-08T05:21:11.996Z,101993.55
2023-05-08T05:24:01.227Z,101997.52
2023-05-08T05:26:49.540Z,102000.00
2023-05-08T05:29:38.135Z,102000.30
2023-05-08T05:32:32.959Z,101994.38
2023-05-08T05:35:44.825Z,101998.09
2023-05-08T05:38:55.109Z,101996.43
2023-05-08T05:41:43.752Z,101997.30
2023-05-08T05:44:35.282Z,102001.50
2023-05-08T05:47:50.131Z,102006.27
2023-05-08T05:50:48.271Z,102009.71
2023-05-08T05:53:40.776Z,102009.24
2023-05-08T05:56:51.382Z,102010.34
2023-05-08T05:59:43.506Z,102012.98
2023-05-08T06:02:37.568Z,102016.56
2023-05-08T06:05:27.502Z,102014.13
2023-05-08T06:08:19.035Z,102010.71
2023-05-08T06:11:09.094Z,102012.19
2023-05-08T06:13:59.678Z,102017.88
2023-05-08T06:16:31.851Z,102018.42
2023-05-08T06:19:23.868Z,102019.88
2023-05-08T06:22:14.029Z,102019.93
2023-05-08T06:24:53.929Z,102023.41
2023-05-08T06:27:37.313Z,102021.60
2023-05-08T06:30:28.324Z,102022.55
2023-05-08T06:33:17.938Z,102019.02
2023-05-08T06:36:08.933Z,102020.34
2023-05-08T06:38:58.721Z,102022.02
2023-05-08T06:41:48.394Z,102025.66
2023-05-08T06:44:36.772Z,102024.48
2023-05-08T06:47:26.153Z,102019.81
2023-05-08T06:50:14.464Z,102021.64
2023-05-08T06:52:57.114Z,102018.73
2023-05-08T06:55:45.604Z,102018.81
2023-05-08T06:58:35.539Z,102017.42
2023-05-08T07:01:24.466Z,102018.06
2023-05-08T07:04:13.697Z,102021.86
2023-05-08T07:07:02.219Z,102020.04
2023-05-08T07:09:31.527Z,102019.75
2023-05-08T07:12:20.936Z,102019.73
2023-05-08T07:15:18.191Z,102022.20
2023-05-08T07:18:18.858Z,102023.09
2023-05-08T07:21:11.578Z,102021.86
2023-05-08T07:24:00.169Z,102028.13
2023-05-08T07:26:49.266Z,102029.70
2023-05-08T07:29:37.182Z,102028.41
2023-05-08T07:32:25.521Z,102029.77
2023-05-08T07:35:02.104Z,102028.44
2023-05-08T07:37:50.497Z,102023.78
2023-05-08T07:40:38.785Z,102027.63
2023-05-08T07:43:29.140Z,102029.91
2023-05-08T07:45:58.001Z,102031.16
2023-05-08T07:48:46.999Z,102028.02
2023-05-08T07:51:35.627Z,102025.99
2023-05-08T07:54:26.548Z,102022.80
2023-05-08T07:57:15.156Z,102023.92
2023-05-08T08:00:05.916Z,102021.73
2023-05-08T08:02:54.978Z,102020.23
2023-05-08T08:05:44.936Z,102022.75
2023-05-08T08:08:35.410Z,102021.65
2023-05-08T08:11:23.657Z,102024.67
2023-05-08T08:14:12.092Z,102026.30
2023-05-08T08:17:01.011Z,102027.31
2023-05-08T08:19:39.661Z,102027.75
2023-05-08T08:22:30.377Z,102024.04
2023-05-08T08:25:08.937Z,102017.27
2023-05-08T08:27:52.683Z,102010.11
2023-05-08T08:30:35.007Z,102008.58
2023-05-08T08:33:19.100Z,102006.94
2023-05-08T08:35:52.674Z,102004.91
2023-05-08T08:38:36.591Z,102006.64
2023-05-08T08:41:24.993Z,102002.04
2023-05-08T08:44:15.421Z,102002.21
2023-05-08T08:47:05.975Z,101993.13
2023-05-08T08:49:49.121Z,101996.69
2023-05-08T08:52:41.274Z,101987.45
2023-05-08T08:55:20.601Z,101991.05
2023-05-08T08:58:15.261Z,101985.34
2023-05-08T09:00:58.061Z,101987.65
2023-05-08T09:03:37.913Z,101985.91
2023-05-08T09:06:27.339Z,101989.80
2023-05-08T09:09:16.258Z,101985.64
2023-05-08T09:12:04.000Z,101990.04
2023-05-08T09:14:52.732Z,101990.88
2023-05-08T09:17:34.912Z,101986.48
2023-05-08T09:20:23.344Z,101984.02
2023-05-08T09:23:14.110Z,101973.83
2023-05-08T09:26:03.856Z,101975.65
2023-05-08T09:28:45.905Z,101976.60
2023-05-08T09:31:39.253Z,101974.96
2023-05-08T09:34:28.839Z,101979.80
2023-05-08T09:37:17.197Z,101978.38
2023-05-08T09:40:15.447Z,101978.78
2023-05-08T09:43:12.940Z,101976.08
2023-05-08T09:46:20.040Z,101975.08
2023-05-08T09:49:17.264Z,101973.78
2023-05-08T09:52:05.832Z,101969.16
2023-05-08T09:54:58.825Z,101968.41
2023-05-08T09:57:52.828Z,101965.32
2023-05-08T10:00:40.870Z,101965.09
2023-05-08T10:03:43.738Z,101965.60
2023-05-08T10:06:25.044Z,101963.65
2023-05-08T10:09:14.529Z,101958.05
2023-05-08T10:11:56.603Z,101953.80
2023-05-08T10:14:27.482Z,101950.20
2023-05-08T10:17:19.694Z,101958.05
2023-05-08T10:20:09.775Z,101954.02
2023-05-08T10:22:58.333Z,101943.81
2023-05-08T10:25:42.483Z,101940.38
2023-05-08T10:28:33.933Z,101940.93
2023-05-08T10:31:04.796Z,101932.70
2023-05-08T10:33:45.930Z,101940.39
2023-05-08T10:36:35.543Z,101939.57
2023-05-08T10:39:05.952Z,101939.27
2023-05-08T10:41:36.024Z,101937.95
2023-05-08T10:44:16.433Z,101934.65
2023-05-08T10:47:10.068Z,101930.89
2023-05-08T10:50:01.903Z,101930.14
2023-05-08T10:52:56.673Z,101933.05
2023-05-08T10:55:47.191Z,101933.45
2023-05-08T10:58:36.677Z,101933.41
2023-05-08T11:01:26.069Z,101931.70
2023-05-08T11:03:55.317Z,101928.92
2023-05-08T11:06:45.889Z,101928.41
2023-05-08T11:09:46.277Z,101928.39
2023-05-08T11:12:45.544Z,101916.98
2023-05-08T11:15:37.222Z,101917.60
2023-05-08T11:18:32.549Z,101911.33
2023-05-08T11:21:30.149Z,101906.44
2023-05-08T11:24:18.895Z,101909.76
2023-05-08T11:27:03.210Z,101904.34
2023-05-08T11:30:05.526Z,101899.48
2023-05-08T11:32:50.463Z,101900.56
2023-05-08T11:35:40.569Z,101900.16
2023-05-08T11:38:32.770Z,101900.56
2023-05-08T11:41:22.283Z,101897.28
2023-05-08T11:44:16.926Z,101898.00
2023-05-08T11:47:06.439Z,101894.59
2023-05-08T11:49:56.074Z,101898.45
2023-05-08T11:52:35.329Z,101896.84
2023-05-08T11:55:13.263Z,101890.83
2023-05-08T11:57:41.486Z,101895.54
2023-05-08T12:00:11.478Z,101896.67
2023-05-08T12:02:45.457Z,101896.17
2023-05-08T12:05:26.157Z,101890.77
2023-05-08T12:07:57.138Z,101888.63
2023-05-08T12:10:28.475Z,101882.86
2023-05-08T12:13:17.000Z,101888.31
2023-05-08T12:15:49.259Z,101886.28
2023-05-08T12:18:31.300Z,101879.16
2023-05-08T12:21:21.427Z,101878.44
2023-05-08T12:23:53.804Z,101880.05
2023-05-08T12:26:22.249Z,101874.80
2023-05-08T12:29:06.087Z,101872.02
2023-05-08T12:31:40.802Z,101872.72
2023-05-08T12:34:19.651Z,101867.95
2023-05-08T12:36:48.567Z,101857.28
2023-05-08T12:39:44.278Z,101862.83
2023-05-08T12:42:12.165Z,101869.60
2023-05-08T12:44:49.814Z,101866.92
2023-05-08T12:47:38.005Z,101864.25
2023-05-08T12:50:26.387Z,101864.09
2023-05-08T12:52:54.473Z,101864.80
2023-05-08T12:55:52.152Z,101858.43
2023-05-08T12:58:40.348Z,101852.53
2023-05-08T13:01:20.359Z,101849.16
2023-05-08T13:04:08.367Z,101847.05
2023-05-08T13:06:54.506Z,101840.36
2023-05-08T13:09:31.291Z,101837.00
2023-05-08T13:12:02.240Z,101836.19
2023-05-08T13:14:33.891Z,101841.96
2023-05-08T13:17:02.050Z,101840.13
2023-05-08T13:19:30.629Z,101835.83
2023-05-08T13:22:03.730Z,101837.46
2023-05-08T13:24:43.679Z,101836.31
2023-05-08T13:27:14.303Z,101834.52
2023-05-08T13:29:42.583Z,101836.23
2023-05-08T13:32:14.946Z,101836.17
2023-05-08T13:35:01.219Z,101834.37
2023-05-08T13:37:51.751Z,101826.77
2023-05-08T13:40:27.826Z,101822.21
2023-05-08T13:43:07.174Z,101818.58
2023-05-08T13:45:51.088Z,101815.05
2023-05-08T13:48:20.051Z,101814.37
2023-05-08T13:50:57.960Z,101812.00
2023-05-08T13:53:47.375Z,101803.19
2023-05-08T13:56:37.964Z,101799.61
2023-05-08T13:59:17.612Z,101802.11
2023-05-08T14:01:50.524Z,101803.05
2023-05-08T14:04:18.869Z,101802.14
2023-05-08T14:06:46.919Z,101802.71
2023-05-08T14:09:24.522Z,101807.07
2023-05-08T14:11:52.423Z,101808.91
2023-05-08T14:14:42.423Z,101802.63
2023-05-08T14:17:11.480Z,101799.55
2023-05-08T14:19:42.474Z,101801.06
2023-05-08T14:22:30.612Z,101799.14
2023-05-08T14:25:02.012Z,101793.96
2023-05-08T14:27:38.501Z,101795.99
2023-05-08T14:30:35.982Z,101796.77
2023-05-08T14:33:06.348Z,101794.73
2023-05-08T14:35:34.663Z,101791.56
2023-05-08T14:38:06.073Z,101792.32
2023-05-08T14:40:44.130Z,101796.11
2023-05-08T14:43:42.273Z,101794.02
2023-05-08T14:46:30.798Z,101789.44
2023-05-08T14:49:32.872Z,101791.63
2023-05-08T14:52:14.899Z,101786.98
2023-05-08T14:54:54.601Z,101790.27
2023-05-08T14:57:43.541Z,101787.63
2023-05-08T15:00:31.804Z,101788.19
2023-05-08T15:03:00.644Z,101784.59
2023-05-08T15:05:43.206Z,101788.59
2023-05-08T15:08:31.623Z,101787.58
2023-05-08T15:13:54.145Z,101796.34
2023-05-08T15:16:36.488Z,101793.58
2023-05-08T15:19:08.882Z,101792.20
2023-05-08T15:21:57.395Z,101793.98
2023-05-08T15:24:41.439Z,101796.48
2023-05-08T15:27:23.515Z,101794.19
2023-05-08T15:30:13.001Z,101794.20
2023-05-08T15:33:02.495Z,101796.39
2023-05-08T15:35:51.380Z,101794.95
2023-05-08T15:38:40.598Z,101791.98
2023-05-08T15:41:21.286Z,101790.31
2023-05-08T15:44:00.986Z,101789.20
2023-05-08T15:46:34.836Z,101787.71
2023-05-08T15:49:16.074Z,101783.27
2023-05-08T15:51:46.546Z,101785.45
2023-05-08T15:54:34.670Z,101779.20
2023-05-08T15:57:23.084Z,101778.48
2023-05-08T16:00:12.475Z,101775.27
2023-05-08T16:03:00.959Z,101773.86
2023-05-08T16:05:51.403Z,101774.90
2023-05-08T16:08:35.593Z,101773.33
2023-05-08T16:11:08.716Z,101771.64
2023-05-08T16:13:38.039Z,101774.54
2023-05-08T16:16:18.672Z,101771.52
2023-05-08T16:18:46.951Z,101771.64
2023-05-08T16:21:25.700Z,101771.64
2023-05-08T16:23:56.947Z,101770.08
2023-05-08T16:26:36.220Z,101774.54
2023-05-08T16:29:07.978Z,101778.78
2023-05-08T16:31:57.062Z,101781.06
2023-05-08T16:34:46.230Z,101781.64
2023-05-08T16:37:36.805Z,101780.61
2023-05-08T16:40:25.827Z,101780.48
2023-05-08T16:42:57.596Z,101779.67
2023-05-08T16:45:27.154Z,101778.91
2023-05-08T16:48:06.116Z,101778.85
2023-05-08T16:50:34.937Z,101776.95
2023-05-08T16:53:15.222Z,101776.79
2023-05-08T16:55:56.321Z,101778.39
2023-05-08T16:58:47.267Z,101779.85
2023-05-08T17:01:38.006Z,101780.17
2023-05-08T17:04:13.633Z,101786.18
2023-05-08T17:07:04.476Z,101784.92
2023-05-08T17:09:35.069Z,101783.48
2023-05-08T17:12:15.869Z,101787.27
2023-05-08T17:14:59.967Z,101785.93
2023-05-08T17:17:50.734Z,101783.07
2023-05-08T17:20:22.029Z,101784.60
2023-05-08T17:22:53.562Z,101785.11
2023-05-08T17:25:34.878Z,101787.17
2023-05-08T17:28:25.625Z,101787.66
2023-05-08T17:30:59.013Z,101785.94
2023-05-08T17:33:38.480Z,101789.13
2023-05-08T17:36:28.292Z,101791.14
2023-05-08T17:39:19.419Z,101791.52
2023-05-08T17:41:53.979Z,101789.52
2023-05-08T17:44:44.480Z,101792.23
2023-05-08T17:47:34.690Z,101794.13
2023-05-08T17:50:24.570Z,101795.92
2023-05-08T17:52:54.970Z,101799.83
2023-05-08T17:55:44.948Z,101803.10
2023-05-08T17:58:36.996Z,101803.99
2023-05-08T18:01:31.804Z,101807.63
2023-05-08T18:04:13.845Z,101808.83
2023-05-08T18:07:03.479Z,101813.31
2023-05-08T18:09:44.487Z,101812.30
2023-05-08T18:12:16.335Z,101813.02
2023-05-08T18:15:06.306Z,101816.48
2023-05-08T18:17:54.892Z,101823.15
2023-05-08T18:20:38.224Z,101828.91
2023-05-08T18:23:31.088Z,101827.24
2023-05-08T18:26:21.422Z,101828.52
2023-05-08T18:29:10.608Z,101830.63
2023-05-08T18:31:58.351Z,101836.48
2023-05-08T18:34:47.040Z,101839.16
2023-05-08T18:37:26.208Z,101841.86
2023-05-08T18:40:14.818Z,101841.92
2023-05-08T18:43:03.037Z,101841.38
2023-05-08T18:45:52.622Z,101838.86
2023-05-08T18:48:41.387Z,101847.23
2023-05-08T18:51:31.772Z,101854.89
2023-05-08T18:54:26.426Z,101855.85
2023-05-08T18:57:15.003Z,101861.39
2023-05-08T19:00:09.332Z,101864.03
2023-05-08T19:03:01.339Z,101866.44
2023-05-08T19:05:50.680Z,101867.60
2023-05-08T19:08:30.335Z,101865.71
2023-05-08T19:11:18.384Z,101868.47
2023-05-08T19:14:06.585Z,101873.03
2023-05-08T19:16:55.035Z,101877.68
2023-05-08T19:19:45.254Z,101879.70
2023-05-08T19:22:35.867Z,101877.91
2023-05-08T19:25:25.245Z,101875.55
2023-05-08T19:28:12.286Z,101873.77
2023-05-08T19:31:06.796Z,101872.30
2023-05-08T19:33:54.302Z,101871.51
2023-05-08T19:36:42.624Z,101874.59
2023-05-08T19:39:29.970Z,101874.55
2023-05-08T19:42:03.252Z,101880.73
2023-05-08T19:44:51.364Z,101878.70
2023-05-08T19:47:43.287Z,101878.44
2023-05-08T19:50:31.618Z,101875.78
2023-05-08T19:53:19.693Z,101875.71
2023-05-08T19:56:07.970Z,101874.50
2023-05-08T19:58:55.043Z,101868.08
2023-05-08T20:01:29.050Z,101870.79
2023-05-08T20:04:17.400Z,101870.64
2023-05-08T20:07:06.373Z,101864.03
2023-05-08T20:09:55.543Z,101862.91
2023-05-08T20:12:44.367Z,101864.67
2023-05-08T20:15:35.085Z,101861.33
2023-05-08T20:18:07.218Z,101862.71
2023-05-08T20:20:45.497Z,101862.69
2023-05-08T20:23:24.425Z,101861.15
2023-05-08T20:26:04.930Z,101859.56
2023-05-08T20:28:54.178Z,101853.79
2023-05-08T20:31:40.434Z,101852.96
2023-05-08T20:34:12.024Z,101854.60
2023-05-08T20:36:46.037Z,101854.56
2023-05-08T20:39:31.083Z,101855.39
2023-05-08T20:42:19.645Z,101858.34
2023-05-08T20:44:49.898Z,101858.56
2023-05-08T20:47:35.179Z,101861.97
2023-05-08T20:50:15.542Z,101860.68
2023-05-08T20:52:58.016Z,101857.89
2023-05-08T20:55:47.869Z,101856.37
2023-05-08T20:58:34.744Z,101859.87
2023-05-08T21:01:23.990Z,101854.22
2023-05-08T21:04:12.737Z,101853.70
2023-05-08T21:06:54.752Z,101854.48
2023-05-08T21:09:22.932Z,101849.08
2023-05-08T21:12:12.077Z,101850.67
2023-05-08T21:15:06.344Z,101847.90
2023-05-08T21:17:37.599Z,101847.52
2023-05-08T21:20:08.428Z,101847.69
2023-05-08T21:22:56.725Z,101844.84
2023-05-08T21:25:27.098Z,101848.55
2023-05-08T21:28:15.953Z,101848.09
2023-05-08T21:30:47.723Z,101846.87
2023-05-08T21:33:26.778Z,101848.55
2023-05-08T21:35:54.877Z,101846.70
2023-05-08T21:38:42.081Z,101845.70
2023-05-08T21:41:16.091Z,101845.75
2023-05-08T21:43:47.924Z,101846.49
2023-05-08T21:46:46.425Z,101846.39
2023-05-08T21:49:52.629Z,101848.10
2023-05-08T21:52:33.851Z,101848.98
2023-05-08T21:55:24.544Z,101851.45
2023-05-08T21:58:13.171Z,101848.27
2023-05-08T22:00:50.227Z,101851.83
2023-05-08T22:03:24.486Z,101849.00
2023-05-08T22:06:26.504Z,101851.40
2023-05-08T22:09:15.555Z,101845.75
2023-05-08T22:12:05.930Z,101845.52
2023-05-08T22:14:54.278Z,101844.29
2023-05-08T22:17:22.557Z,101845.80
2023-05-08T22:19:58.026Z,101847.74
2023-05-08T22:22:36.013Z,101848.94
2023-05-08T22:25:26.433Z,101847.56
2023-05-08T22:28:13.274Z,101844.23
2023-05-08T22:30:50.483Z,101841.35
2023-05-08T22:33:24.376Z,101838.16
2023-05-08T22:36:24.862Z,101838.39
2023-05-08T22:38:53.906Z,101837.18
2023-05-08T22:41:34.163Z,101838.52
2023-05-08T22:44:22.688Z,101841.56
2023-05-08T22:46:59.116Z,101842.21
2023-05-08T22:49:33.842Z,101840.77
2023-05-08T22:52:13.627Z,101840.60
2023-05-08T22:54:50.597Z,101835.09
2023-05-08T22:57:37.609Z,101834.83
2023-05-08T23:00:07.662Z,101835.13
2023-05-08T23:02:50.688Z,101837.55
2023-05-08T23:05:40.882Z,101836.48
2023-05-08T23:08:29.116Z,101839.33
2023-05-08T23:11:17.922Z,101836.04
2023-05-08T23:14:08.147Z,101836.08
2023-05-08T23:16:56.966Z,101836.66
2023-05-08T23:19:45.611Z,101839.21
2023-05-08T23:22:36.314Z,101837.70
2023-05-08T23:25:36.987Z,101839.92
2023-05-08T23:28:27.263Z,101836.17
2023-05-08T23:31:17.356Z,101836.52
2023-05-08T23:34:08.168Z,101838.43
2023-05-08T23:36:58.282Z,101836.23
2023-05-08T23:39:40.820Z,101837.17
2023-05-08T23:42:20.382Z,101834.71
2023-05-08T23:45:10.502Z,101833.98
2023-05-08T23:47:42.714Z,101834.52
2023-05-08T23:50:31.358Z,101838.20
2023-05-08T23:53:19.454Z,101836.59
2023-05-08T23:55:58.878Z,101838.80
2023-05-08T23:58:47.719Z,101838.45
